createdAt,value
2022-10-24T00:02:48.784Z,4.06
2022-10-24T00:04:49.861Z,4.06
2022-10-24T00:06:51.477Z,4.06
2022-10-24T00:08:53.100Z,4.06
2022-10-24T00:12:56.048Z,4.06
2022-10-24T00:14:56.958Z,4.06
2022-10-24T00:16:58.774Z,4.05
2022-10-24T00:19:00.272Z,4.06
2022-10-24T00:23:02.542Z,4.05
2022-10-24T00:25:03.562Z,4.05
2022-10-24T00:29:06.417Z,4.05
2022-10-24T00:31:08.212Z,4.05
2022-10-24T00:33:09.694Z,4.06
2022-10-24T00:35:10.672Z,4.05
2022-10-24T00:39:13.221Z,4.05
2022-10-24T00:41:14.755Z,4.05
2022-10-24T00:43:16.197Z,4.05
2022-10-24T00:45:17.404Z,4.05
2022-10-24T00:47:19.105Z,4.05
2022-10-24T00:49:20.931Z,4.05
2022-10-24T00:51:22.691Z,4.05
2022-10-24T00:53:23.994Z,4.05
2022-10-24T00:55:25.112Z,4.05
2022-10-24T00:57:26.212Z,4.05
2022-10-24T00:59:27.630Z,4.05
2022-10-24T01:01:28.590Z,4.05
2022-10-24T01:03:30.240Z,4.05
2022-10-24T01:05:31.921Z,4.05
2022-10-24T01:09:34.948Z,4.05
2022-10-24T01:11:35.962Z,4.05
2022-10-24T01:13:37.543Z,4.04
2022-10-24T01:15:39.344Z,4.05
2022-10-24T01:17:41.155Z,4.05
2022-10-24T01:21:43.133Z,4.05
2022-10-24T01:23:44.664Z,4.04
2022-10-24T01:27:47.277Z,4.04
2022-10-24T01:29:48.676Z,4.05
2022-10-24T01:31:49.815Z,4.04
2022-10-24T01:33:51.545Z,4.04
2022-10-24T01:37:54.488Z,4.04
2022-10-24T01:39:55.697Z,4.04
2022-10-24T01:43:57.914Z,4.04
2022-10-24T01:45:59.184Z,4.04
2022-10-24T01:48:01.000Z,4.04
2022-10-24T01:50:02.879Z,4.04
2022-10-24T01:54:05.395Z,4.04
2022-10-24T01:56:07.223Z,4.04
2022-10-24T01:58:08.326Z,4.04
2022-10-24T02:00:09.565Z,4.04
2022-10-24T02:04:11.578Z,4.04
2022-10-24T02:06:12.663Z,4.04
2022-10-24T02:10:15.192Z,4.04
2022-10-24T02:12:16.241Z,4.04
2022-10-24T02:14:17.214Z,4.03
2022-10-24T02:16:19.056Z,4.04
2022-10-24T02:20:21.478Z,4.04
2022-10-24T02:22:22.575Z,4.04
2022-10-24T02:24:24.328Z,4.04
2022-10-24T02:26:25.307Z,4.04
2022-10-24T02:28:26.942Z,4.04
2022-10-24T02:30:28.667Z,4.04
2022-10-24T02:32:29.605Z,4.04
2022-10-24T02:36:33.018Z,4.03
2022-10-24T02:38:34.233Z,4.03
2022-10-24T02:40:35.492Z,4.03
2022-10-24T02:42:36.823Z,4.04
2022-10-24T02:44:38.086Z,4.03
2022-10-24T02:46:39.213Z,4.03
2022-10-24T02:48:40.759Z,4.03
2022-10-24T02:50:42.529Z,4.04
2022-10-24T02:52:44.256Z,4.03
2022-10-24T02:54:45.670Z,4.03
2022-10-24T02:56:46.620Z,4.03
2022-10-24T02:58:48.389Z,4.03
2022-10-24T03:02:51.538Z,4.03
2022-10-24T03:04:52.823Z,4.03
2022-10-24T03:08:56.007Z,4.03
2022-10-24T03:10:57.222Z,4.03
2022-10-24T03:12:58.826Z,4.03
2022-10-24T03:15:00.329Z,4.03
2022-10-24T03:19:03.149Z,4.03
2022-10-24T03:21:04.936Z,4.03
2022-10-24T03:23:06.584Z,4.02
2022-10-24T03:25:07.830Z,4.03
2022-10-24T03:27:08.857Z,4.02
2022-10-24T03:29:10.497Z,4.02
2022-10-24T03:31:11.609Z,4.02
2022-10-24T03:35:14.725Z,4.02
2022-10-24T03:37:15.718Z,4.02
2022-10-24T03:39:16.871Z,4.03
2022-10-24T03:41:18.193Z,4.03
2022-10-24T03:45:21.641Z,4.02
2022-10-24T03:47:23.405Z,4.02
2022-10-24T03:49:24.684Z,4.02
2022-10-24T03:51:26.059Z,4.02
2022-10-24T03:53:27.563Z,4.02
2022-10-24T03:55:29.013Z,4.02
2022-10-24T03:57:30.898Z,4.02
2022-10-24T04:01:33.277Z,4.02
2022-10-24T04:03:35.048Z,4.02
2022-10-24T04:05:35.999Z,4.02
2022-10-24T04:07:37.457Z,4.02
2022-10-24T04:09:38.513Z,4.02
2022-10-24T04:11:40.398Z,4.02
2022-10-24T04:13:42.024Z,4.02
2022-10-24T04:17:45.086Z,4.02
2022-10-24T04:19:46.342Z,4.02
2022-10-24T04:21:47.410Z,4.02
2022-10-24T04:23:48.951Z,4.02
2022-10-24T04:27:52.481Z,4.02
2022-10-24T04:29:54.159Z,4.02
2022-10-24T04:31:55.088Z,4.02
2022-10-24T04:33:56.917Z,4.02
2022-10-24T04:35:58.236Z,4.02
2022-10-24T04:38:00.000Z,4.02
2022-10-24T04:40:01.018Z,4.02
2022-10-24T04:44:04.373Z,4.02
2022-10-24T04:46:05.539Z,4.02
2022-10-24T04:50:07.942Z,4.02
2022-10-24T04:52:18.188Z,4.01
2022-10-24T04:54:11.012Z,4.02
2022-10-24T04:56:12.017Z,4.02
2022-10-24T05:00:14.225Z,4.01
2022-10-24T05:02:15.662Z,4.01
2022-10-24T05:04:16.782Z,4.01
2022-10-24T05:06:18.437Z,4.01
2022-10-24T05:08:19.609Z,4.02
2022-10-24T05:10:20.999Z,4.01
2022-10-24T05:12:22.820Z,4.01
2022-10-24T05:16:25.927Z,4.01
2022-10-24T05:18:26.821Z,4.01
2022-10-24T05:20:28.689Z,4.01
2022-10-24T05:22:30.003Z,4.01
2022-10-24T05:26:33.290Z,4.01
2022-10-24T05:28:34.937Z,4.01
2022-10-24T05:30:35.824Z,4.01
2022-10-24T05:32:38.690Z,4.01
2022-10-24T05:34:38.742Z,4.01
2022-10-24T05:36:39.762Z,4
2022-10-24T05:38:40.672Z,4.01
2022-10-24T05:42:43.737Z,4
2022-10-24T05:44:45.210Z,4.01
2022-10-24T05:46:47.124Z,4.01
2022-10-24T05:48:48.405Z,4.01
2022-10-24T05:50:50.159Z,4.01
2022-10-24T05:52:51.987Z,4.01
2022-10-24T05:55:06.646Z,4
2022-10-24T05:58:56.323Z,4
2022-10-24T06:00:57.875Z,4
2022-10-24T06:02:58.861Z,4
2022-10-24T06:05:43.672Z,4
2022-10-24T06:09:45.692Z,4
2022-10-24T06:11:46.722Z,4
2022-10-24T06:15:48.815Z,4
2022-10-24T06:19:52.062Z,4
2022-10-24T06:21:53.774Z,4
2022-10-24T06:23:55.318Z,4
2022-10-24T06:25:56.547Z,4
2022-10-24T06:29:59.907Z,4
2022-10-24T06:32:01.061Z,4
2022-10-24T06:36:03.700Z,4
2022-10-24T06:38:05.228Z,4
2022-10-24T06:40:06.290Z,4
2022-10-24T06:42:07.305Z,4
2022-10-24T06:46:10.149Z,4
2022-10-24T06:48:11.619Z,4
2022-10-24T06:50:12.494Z,4
2022-10-24T06:52:13.558Z,4
2022-10-24T06:54:15.344Z,4
2022-10-24T06:56:17.064Z,4
2022-10-24T06:58:18.373Z,4
2022-10-24T07:00:19.962Z,4
2022-10-24T07:02:21.138Z,4
2022-10-24T07:06:23.992Z,4
2022-10-24T07:08:25.251Z,4
2022-10-24T07:10:26.567Z,4
2022-10-24T07:12:27.654Z,4
2022-10-24T07:14:29.292Z,4
2022-10-24T07:18:31.693Z,3.99
2022-10-24T07:20:33.501Z,4
2022-10-24T07:22:34.431Z,3.99
2022-10-24T07:24:35.482Z,3.99
2022-10-24T07:26:36.444Z,4
2022-10-24T07:28:37.506Z,4
2022-10-24T07:30:38.460Z,4
2022-10-24T07:34:41.355Z,3.99
2022-10-24T07:36:43.730Z,4
2022-10-24T07:38:44.337Z,3.99
2022-10-24T07:40:45.798Z,3.99
2022-10-24T07:42:47.017Z,3.99
2022-10-24T07:46:49.984Z,3.99
2022-10-24T07:50:53.619Z,4
2022-10-24T07:52:55.241Z,3.99
2022-10-24T07:54:56.125Z,3.99
2022-10-24T07:56:57.703Z,3.99
2022-10-24T07:58:58.771Z,3.99
2022-10-24T08:00:59.781Z,3.99
2022-10-24T08:03:00.938Z,3.99
2022-10-24T08:05:02.250Z,3.99
2022-10-24T08:07:03.506Z,3.99
2022-10-24T08:09:04.513Z,3.99
2022-10-24T08:11:06.236Z,3.99
2022-10-24T08:13:10.309Z,3.99
2022-10-24T08:15:09.546Z,3.99
2022-10-24T08:17:11.341Z,3.99
2022-10-24T08:19:13.209Z,3.99
2022-10-24T08:21:14.682Z,3.99
2022-10-24T08:23:16.418Z,3.99
2022-10-24T08:27:18.860Z,3.98
2022-10-24T08:29:20.294Z,3.99
2022-10-24T08:31:21.305Z,3.99
2022-10-24T08:33:22.243Z,3.99
2022-10-24T08:37:25.132Z,3.99
2022-10-24T08:39:26.007Z,3.99
2022-10-24T08:41:27.479Z,3.99
2022-10-24T08:43:29.162Z,3.99
2022-10-24T08:45:30.500Z,3.99
2022-10-24T08:47:32.267Z,4
2022-10-24T08:49:33.910Z,4
2022-10-24T08:51:35.028Z,4
2022-10-24T08:53:36.327Z,3.99
2022-10-24T08:55:48.598Z,4
2022-10-24T08:57:39.461Z,3.99
2022-10-24T08:59:40.785Z,3.99
2022-10-24T09:01:42.077Z,3.99
2022-10-24T09:03:55.396Z,3.99
2022-10-24T09:05:43.999Z,4
2022-10-24T09:07:45.497Z,3.99
2022-10-24T09:11:48.524Z,3.99
2022-10-24T09:13:49.562Z,3.99
2022-10-24T09:15:50.811Z,3.99
2022-10-24T09:17:51.718Z,3.99
2022-10-24T09:19:53.500Z,3.99
2022-10-24T09:21:54.905Z,3.99
2022-10-24T09:23:56.333Z,4
2022-10-24T09:27:58.865Z,4
2022-10-24T09:30:00.501Z,4
2022-10-24T09:32:01.697Z,4
2022-10-24T09:34:02.701Z,4
2022-10-24T09:38:05.376Z,4
2022-10-24T09:40:06.920Z,4
2022-10-24T09:42:08.017Z,4
2022-10-24T09:44:09.117Z,4
2022-10-24T09:46:10.039Z,4
2022-10-24T09:48:11.864Z,4
2022-10-24T09:50:12.939Z,4
2022-10-24T09:54:14.840Z,4
2022-10-24T09:56:16.210Z,4
2022-10-24T10:00:19.069Z,4
2022-10-24T10:02:20.170Z,4
2022-10-24T10:04:21.495Z,3.99
2022-10-24T10:08:24.453Z,3.99
2022-10-24T10:12:27.595Z,3.99
2022-10-24T10:14:28.683Z,4
2022-10-24T10:16:30.340Z,4
2022-10-24T10:18:31.511Z,4
2022-10-24T10:20:32.752Z,4
2022-10-24T10:22:34.060Z,3.99
2022-10-24T10:26:37.022Z,4
2022-10-24T10:28:38.455Z,4
2022-10-24T10:30:39.693Z,4
2022-10-24T10:32:41.045Z,4
2022-10-24T10:36:43.429Z,4
2022-10-24T10:38:44.523Z,4
2022-10-24T10:40:46.276Z,4
2022-10-24T10:42:47.450Z,4
2022-10-24T10:44:48.271Z,4
2022-10-24T10:48:51.939Z,4
2022-10-24T10:52:55.096Z,4
2022-10-24T10:54:56.655Z,4
2022-10-24T10:56:57.615Z,4
2022-10-24T10:58:59.373Z,4
2022-10-24T11:01:00.619Z,4
2022-10-24T11:03:01.625Z,4
2022-10-24T11:05:03.260Z,4.01
2022-10-24T11:07:04.843Z,4.01
2022-10-24T11:09:06.532Z,4.01
2022-10-24T11:11:07.369Z,4.01
2022-10-24T11:13:08.878Z,4.01
2022-10-24T11:15:09.704Z,4.01
2022-10-24T11:19:12.504Z,4.01
2022-10-24T11:21:13.817Z,4.02
2022-10-24T11:25:16.159Z,4.02
2022-10-24T11:27:17.218Z,4.02
2022-10-24T11:29:18.480Z,4.02
2022-10-24T11:31:19.776Z,4.02
2022-10-24T11:35:22.266Z,4.02
2022-10-24T11:37:23.993Z,4.02
2022-10-24T11:41:26.364Z,4.01
2022-10-24T11:43:27.809Z,4.01
2022-10-24T11:47:31.017Z,4.01
2022-10-24T11:49:32.121Z,4.01
2022-10-24T11:51:33.337Z,4.02
2022-10-24T11:53:34.194Z,4.01
2022-10-24T11:55:36.010Z,4.01
2022-10-24T11:57:37.179Z,4.02
2022-10-24T12:01:39.223Z,4.02
2022-10-24T12:03:40.708Z,4.02
2022-10-24T12:05:42.277Z,4.02
2022-10-24T12:07:43.919Z,4.02
2022-10-24T12:11:46.313Z,4.02
2022-10-24T12:13:47.323Z,4.01
2022-10-24T12:15:49.060Z,4.01
2022-10-24T12:19:52.132Z,4.01
2022-10-24T12:21:53.064Z,4.01
2022-10-24T12:23:54.273Z,4.01
2022-10-24T12:25:55.677Z,4.01
2022-10-24T12:27:57.244Z,4.02
2022-10-24T12:29:58.668Z,4.02
2022-10-24T12:34:02.205Z,4.02
2022-10-24T12:36:03.800Z,4.02
2022-10-24T12:38:05.108Z,4.02
2022-10-24T12:40:06.849Z,4.02
2022-10-24T12:42:08.173Z,4.02
2022-10-24T12:44:09.600Z,4.02
2022-10-24T12:46:13.229Z,4.02
2022-10-24T12:48:56.142Z,4.02
2022-10-24T12:50:57.484Z,4.02
2022-10-24T12:55:00.005Z,4.02
2022-10-24T12:57:01.217Z,4.02
2022-10-24T13:01:04.503Z,4.02
2022-10-24T13:03:05.883Z,4.02
2022-10-24T13:05:06.778Z,4.02
2022-10-24T13:07:08.548Z,4.02
2022-10-24T13:11:11.882Z,4.01
2022-10-24T13:13:13.798Z,4.02
2022-10-24T13:15:15.016Z,4.02
2022-10-24T13:17:16.576Z,4.02
2022-10-24T13:19:17.751Z,4.02
2022-10-24T13:21:18.789Z,4.02
2022-10-24T13:23:19.838Z,4.02
2022-10-24T13:27:23.418Z,4.03
2022-10-24T13:29:24.534Z,4.03
2022-10-24T13:31:26.322Z,4.03
2022-10-24T13:33:28.117Z,4.04
2022-10-24T13:35:29.672Z,4.04
2022-10-24T13:39:34.208Z,4.04
2022-10-24T13:41:34.144Z,4.05
2022-10-24T13:43:35.667Z,4.04
2022-10-24T13:45:36.763Z,4.05
2022-10-24T13:47:38.111Z,4.05
2022-10-24T13:51:41.045Z,4.08
2022-10-24T13:55:43.004Z,4.08
2022-10-24T13:57:44.118Z,4.08
2022-10-24T13:59:45.001Z,4.09
2022-10-24T14:01:46.534Z,4.09
2022-10-24T14:03:48.275Z,4.1
2022-10-24T14:05:49.929Z,4.1
2022-10-24T14:09:52.506Z,4.11
2022-10-24T14:11:53.603Z,4.11
2022-10-24T14:13:54.497Z,4.11
2022-10-24T14:15:55.817Z,4.09
2022-10-24T14:17:57.424Z,4.09
2022-10-24T14:19:59.229Z,4.08
2022-10-24T14:22:00.333Z,4.08
2022-10-24T14:26:03.079Z,4.08
2022-10-24T14:28:04.207Z,4.08
2022-10-24T14:30:05.172Z,4.08
2022-10-24T14:32:06.240Z,4.08
2022-10-24T14:36:09.475Z,4.09
2022-10-24T14:38:10.583Z,4.08
2022-10-24T14:40:12.222Z,4.08
2022-10-24T14:42:13.377Z,4.08
2022-10-24T14:44:14.974Z,4.08
2022-10-24T14:46:16.700Z,4.08
2022-10-24T14:48:18.184Z,4.08
2022-10-24T14:50:19.017Z,4.08
2022-10-24T14:52:19.902Z,4.08
2022-10-24T14:54:21.084Z,4.08
2022-10-24T14:56:22.346Z,4.08
2022-10-24T14:58:24.004Z,4.08
2022-10-24T15:00:25.329Z,4.08
2022-10-24T15:02:26.685Z,4.08
2022-10-24T15:04:27.695Z,4.08
2022-10-24T15:08:30.817Z,4.07
2022-10-24T15:10:32.108Z,4.07
2022-10-24T15:12:33.692Z,4.08
2022-10-24T15:16:36.462Z,4.08
2022-10-24T15:18:37.714Z,4.07
2022-10-24T15:20:39.220Z,4.08
2022-10-24T15:24:44.206Z,4.1
2022-10-24T15:26:43.114Z,4.1
2022-10-24T15:28:44.597Z,4.1
2022-10-24T15:30:45.708Z,4.09
2022-10-24T15:32:47.256Z,4.08
2022-10-24T15:36:49.142Z,4.08
2022-10-24T15:40:51.474Z,4.08
2022-10-24T15:42:52.643Z,4.08
2022-10-24T15:44:53.943Z,4.08
2022-10-24T15:46:55.399Z,4.08
2022-10-24T15:50:57.924Z,4.08
2022-10-24T15:52:59.533Z,4.08
2022-10-24T15:55:00.846Z,4.08
2022-10-24T15:57:05.234Z,4.08
2022-10-24T16:01:05.437Z,4.08
2022-10-24T16:03:06.758Z,4.08
2022-10-24T16:09:10.568Z,4.08
2022-10-24T16:11:11.556Z,4.07
2022-10-24T16:13:12.596Z,4.07
2022-10-24T16:17:14.905Z,4.07
2022-10-24T16:19:15.990Z,4.08
2022-10-24T16:23:18.801Z,4.07
2022-10-24T16:25:20.539Z,4.07
2022-10-24T16:27:21.916Z,4.07
2022-10-24T16:29:23.288Z,4.07
2022-10-24T16:33:25.886Z,4.07
2022-10-24T16:35:27.648Z,4.07
2022-10-24T16:37:29.259Z,4.07
2022-10-24T16:39:31.068Z,4.07
2022-10-24T16:41:32.248Z,4.07
2022-10-24T16:43:36.424Z,4.07
2022-10-24T16:45:35.390Z,4.07
2022-10-24T16:49:37.619Z,4.07
2022-10-24T16:51:40.493Z,4.06
2022-10-24T16:53:40.130Z,4.07
2022-10-24T16:55:41.161Z,4.07
2022-10-24T16:59:43.615Z,4.06
2022-10-24T17:01:45.182Z,4.06
2022-10-24T17:07:48.980Z,4.06
2022-10-24T17:09:49.803Z,4.06
2022-10-24T17:11:51.663Z,4.06
2022-10-24T17:15:54.418Z,4.06
2022-10-24T17:17:55.376Z,4.06
2022-10-24T17:21:58.513Z,4.06
2022-10-24T17:24:00.206Z,4.06
2022-10-24T17:26:01.967Z,4.06
2022-10-24T17:28:03.395Z,4.06
2022-10-24T17:32:06.363Z,4.06
2022-10-24T17:34:08.111Z,4.06
2022-10-24T17:36:09.185Z,4.06
2022-10-24T17:38:10.428Z,4.06
2022-10-24T17:42:12.944Z,4.06
2022-10-24T17:44:14.695Z,4.06
2022-10-24T17:46:16.465Z,4.06
2022-10-24T17:48:18.185Z,4.06
2022-10-24T17:52:21.696Z,4.06
2022-10-24T17:54:22.797Z,4.06
2022-10-24T17:58:25.482Z,4.05
2022-10-24T18:00:26.450Z,4.06
2022-10-24T18:04:28.386Z,4.05
2022-10-24T18:06:29.634Z,4.05
2022-10-24T18:08:31.211Z,4.05
2022-10-24T18:10:33.059Z,4.05
2022-10-24T18:14:35.121Z,4.05
2022-10-24T18:16:36.270Z,4.05
2022-10-24T18:18:37.363Z,4.05
2022-10-24T18:20:39.207Z,4.05
2022-10-24T18:22:40.269Z,4.05
2022-10-24T18:24:41.514Z,4.05
2022-10-24T18:26:43.175Z,4.05
2022-10-24T18:30:45.806Z,4.05
2022-10-24T18:32:47.767Z,4.05
2022-10-24T18:34:48.850Z,4.05
2022-10-24T18:36:49.847Z,4.05
2022-10-24T18:40:53.180Z,4.05
2022-10-24T18:42:54.797Z,4.05
2022-10-24T18:44:56.152Z,4.05
2022-10-24T18:46:57.284Z,4.05
2022-10-24T18:48:58.533Z,4.04
2022-10-24T18:50:59.524Z,4.05
2022-10-24T18:53:00.469Z,4.04
2022-10-24T18:55:01.316Z,4.05
2022-10-24T18:57:02.712Z,4.04
2022-10-24T18:59:03.872Z,4.04
2022-10-24T19:01:05.809Z,4.04
2022-10-24T19:03:06.912Z,4.04
2022-10-24T19:05:08.757Z,4.04
2022-10-24T19:07:10.300Z,4.04
2022-10-24T19:09:11.968Z,4.04
2022-10-24T19:13:15.020Z,4.05
2022-10-24T19:15:16.302Z,4.04
2022-10-24T19:17:18.114Z,4.04
2022-10-24T19:19:19.283Z,4.04
2022-10-24T19:23:21.257Z,4.04
2022-10-24T19:25:22.947Z,4.04
2022-10-24T19:27:23.851Z,4.04
2022-10-24T19:29:25.519Z,4.04
2022-10-24T19:31:27.285Z,4.04
2022-10-24T19:33:28.720Z,4.04
2022-10-24T19:34:12.548Z,4.04
2022-10-24T19:36:14.426Z,4.04
2022-10-24T19:40:16.546Z,4.04
2022-10-24T19:42:17.528Z,4.04
2022-10-24T19:44:18.461Z,4.04
2022-10-24T19:46:20.266Z,4.04
2022-10-24T19:50:23.092Z,4.04
2022-10-24T19:52:24.702Z,4.04
2022-10-24T19:54:26.129Z,4.04
2022-10-24T19:56:27.846Z,4.04
2022-10-24T20:00:31.024Z,4.04
2022-10-24T20:02:32.079Z,4.04
2022-10-24T20:04:33.118Z,4.04
2022-10-24T20:06:34.049Z,4.03
2022-10-24T20:08:35.237Z,4.04
2022-10-24T20:10:37.047Z,4.04
2022-10-24T20:12:38.620Z,4.04
2022-10-24T20:16:41.406Z,4.03
2022-10-24T20:18:43.307Z,4.03
2022-10-24T20:20:44.053Z,4.04
2022-10-24T20:22:45.224Z,4.03
2022-10-24T20:24:46.265Z,4.03
2022-10-24T20:26:47.206Z,4.03
2022-10-24T20:28:48.274Z,4.03
2022-10-24T20:32:50.761Z,4.03
2022-10-24T20:34:51.688Z,4.03
2022-10-24T20:38:53.923Z,4.03
2022-10-24T20:40:54.874Z,4.03
2022-10-24T20:42:56.084Z,4.03
2022-10-24T20:44:57.570Z,4.03
2022-10-24T20:48:59.946Z,4.03
2022-10-24T20:51:01.813Z,4.02
2022-10-24T20:53:02.765Z,4.03
2022-10-24T20:55:07.494Z,4.02
2022-10-24T20:59:07.100Z,4.02
2022-10-24T21:01:08.488Z,4.02
2022-10-24T21:05:11.087Z,4.02
2022-10-24T21:07:12.980Z,4.02
2022-10-24T21:09:14.644Z,4.02
2022-10-24T21:11:16.403Z,4.03
2022-10-24T21:15:18.525Z,4.02
2022-10-24T21:17:19.970Z,4.02
2022-10-24T21:19:21.116Z,4.02
2022-10-24T21:21:22.826Z,4.02
2022-10-24T21:23:24.364Z,4.02
2022-10-24T21:25:25.881Z,4.02
2022-10-24T21:27:26.900Z,4.02
2022-10-24T21:31:29.694Z,4.02
2022-10-24T21:33:30.923Z,4.02
2022-10-24T21:35:32.144Z,4.02
2022-10-24T21:37:33.179Z,4.02
2022-10-24T21:39:34.684Z,4.02
2022-10-24T21:43:37.221Z,4.02
2022-10-24T21:47:39.992Z,4.02
2022-10-24T21:49:41.727Z,4.02
2022-10-24T21:51:42.923Z,4.02
2022-10-24T21:53:44.473Z,4.02
2022-10-24T21:57:47.743Z,4.02
2022-10-24T21:59:49.047Z,4.02
2022-10-24T22:03:51.253Z,4.02
2022-10-24T22:05:53.002Z,4.02
2022-10-24T22:07:54.357Z,4.02
2022-10-24T22:09:55.436Z,4.01
2022-10-24T22:13:57.886Z,4.02
2022-10-24T22:15:59.729Z,4.02
2022-10-24T22:18:00.662Z,4.01
2022-10-24T22:20:02.562Z,4.01
2022-10-24T22:22:04.088Z,4.02
2022-10-24T22:26:07.090Z,4.01
2022-10-24T22:30:08.980Z,4.01
2022-10-24T22:32:10.222Z,4.01
2022-10-24T22:34:11.294Z,4.01
2022-10-24T22:36:13.097Z,4.01
2022-10-24T22:40:15.322Z,4.01
2022-10-24T22:42:19.087Z,4.01
2022-10-24T22:46:19.802Z,4.01
2022-10-24T22:48:21.454Z,4.01
2022-10-24T22:50:22.447Z,4.01
2022-10-24T22:52:23.884Z,4.01
2022-10-24T22:54:25.115Z,4.01
2022-10-24T22:58:28.533Z,4.01
2022-10-24T23:02:31.196Z,4.01
2022-10-24T23:04:32.929Z,4.01
2022-10-24T23:06:33.831Z,4
2022-10-24T23:08:35.218Z,4.01
2022-10-24T23:12:38.143Z,4.01
2022-10-24T23:14:39.519Z,4.01
2022-10-24T23:16:40.684Z,4
2022-10-24T23:18:42.025Z,4
2022-10-24T23:22:46.685Z,4
2022-10-24T23:24:46.777Z,4
2022-10-24T23:26:48.547Z,4
2022-10-24T23:28:50.402Z,4
2022-10-24T23:30:52.219Z,4
2022-10-24T23:32:53.945Z,4
2022-10-24T23:34:55.115Z,4
2022-10-24T23:38:57.277Z,4
2022-10-24T23:40:58.557Z,4
2022-10-24T23:45:01.561Z,4
2022-10-24T23:47:02.651Z,4
2022-10-24T23:49:04.111Z,4
2022-10-24T23:51:05.901Z,4
2022-10-24T23:55:09.176Z,4
2022-10-24T23:57:10.125Z,4
2022-10-24T23:59:11.539Z,4
